sensor_id;sensor_type;location;lat;lon;timestamp;pressure;altitude;pressure_sealevel;temperature;humidity
60646;BME280;46462;32.608;-117.032;2023-04-26T00:02:17;99078.95;;;23.40;48.36
60646;BME280;46462;32.608;-117.032;2023-04-26T00:04:50;99079.38;;;23.78;47.45
60646;BME280;46462;32.608;-117.032;2023-04-26T00:07:18;99075.63;;;24.14;46.36
60646;BME280;46462;32.608;-117.032;2023-04-26T00:09:48;99078.49;;;24.35;45.44
60646;BME280;46462;32.608;-117.032;2023-04-26T00:12:19;99082.95;;;24.57;44.92
60646;BME280;46462;32.608;-117.032;2023-04-26T00:14:50;99081.43;;;24.78;44.36
60646;BME280;46462;32.608;-117.032;2023-04-26T00:17:20;99079.36;;;24.98;43.80
60646;BME280;46462;32.608;-117.032;2023-04-26T00:19:51;99078.63;;;25.04;43.57
60646;BME280;46462;32.608;-117.032;2023-04-26T00:22:22;99083.45;;;25.12;43.39
60646;BME280;46462;32.608;-117.032;2023-04-26T00:24:52;99083.46;;;25.18;43.24
60646;BME280;46462;32.608;-117.032;2023-04-26T00:27:23;99085.36;;;25.21;43.19
60646;BME280;46462;32.608;-117.032;2023-04-26T00:29:54;99085.00;;;25.23;43.12
60646;BME280;46462;32.608;-117.032;2023-04-26T00:32:24;99084.39;;;25.26;43.03
60646;BME280;46462;32.608;-117.032;2023-04-26T00:34:55;99088.71;;;25.27;43.02
60646;BME280;46462;32.608;-117.032;2023-04-26T00:37:26;99094.75;;;25.30;42.93
60646;BME280;46462;32.608;-117.032;2023-04-26T00:39:57;99098.79;;;25.30;42.93
60646;BME280;46462;32.608;-117.032;2023-04-26T00:42:27;99094.03;;;25.29;42.96
60646;BME280;46462;32.608;-117.032;2023-04-26T00:44:58;99091.23;;;25.32;42.89
60646;BME280;46462;32.608;-117.032;2023-04-26T00:47:29;99089.22;;;25.36;42.80
60646;BME280;46462;32.608;-117.032;2023-04-26T00:50:00;99093.34;;;25.37;42.92
60646;BME280;46462;32.608;-117.032;2023-04-26T00:52:31;99096.73;;;25.39;42.85
60646;BME280;46462;32.608;-117.032;2023-04-26T00:55:02;99097.00;;;25.30;42.99
60646;BME280;46462;32.608;-117.032;2023-04-26T00:57:32;99101.81;;;25.35;42.93
60646;BME280;46462;32.608;-117.032;2023-04-26T01:00:02;99096.41;;;25.30;43.04
60646;BME280;46462;32.608;-117.032;2023-04-26T01:02:33;99096.13;;;25.33;42.98
60646;BME280;46462;32.608;-117.032;2023-04-26T01:05:08;99097.53;;;25.38;42.90
60646;BME280;46462;32.608;-117.032;2023-04-26T01:07:38;99098.31;;;25.37;42.86
60646;BME280;46462;32.608;-117.032;2023-04-26T01:10:08;99097.48;;;25.39;42.79
60646;BME280;46462;32.608;-117.032;2023-04-26T01:12:38;99097.58;;;25.42;42.77
60646;BME280;46462;32.608;-117.032;2023-04-26T01:15:10;99100.95;;;25.39;42.82
60646;BME280;46462;32.608;-117.032;2023-04-26T01:17:39;99105.72;;;25.39;42.78
60646;BME280;46462;32.608;-117.032;2023-04-26T01:20:13;99104.52;;;25.40;42.78
60646;BME280;46462;32.608;-117.032;2023-04-26T01:22:41;99105.50;;;25.43;42.76
60646;BME280;46462;32.608;-117.032;2023-04-26T01:25:12;99102.52;;;25.43;42.75
60646;BME280;46462;32.608;-117.032;2023-04-26T01:27:42;99105.23;;;25.45;42.74
60646;BME280;46462;32.608;-117.032;2023-04-26T01:30:13;99106.32;;;25.43;42.73
60646;BME280;46462;32.608;-117.032;2023-04-26T01:32:43;99108.32;;;25.44;42.71
60646;BME280;46462;32.608;-117.032;2023-04-26T01:35:14;99109.66;;;25.45;42.70
60646;BME280;46462;32.608;-117.032;2023-04-26T01:37:45;99108.73;;;25.46;42.63
60646;BME280;46462;32.608;-117.032;2023-04-26T01:40:16;99111.75;;;25.46;42.61
60646;BME280;46462;32.608;-117.032;2023-04-26T01:42:46;99114.38;;;25.49;42.52
60646;BME280;46462;32.608;-117.032;2023-04-26T01:45:17;99113.76;;;25.50;42.48
60646;BME280;46462;32.608;-117.032;2023-04-26T01:47:48;99114.88;;;25.52;42.43
60646;BME280;46462;32.608;-117.032;2023-04-26T01:50:19;99115.67;;;25.55;42.40
60646;BME280;46462;32.608;-117.032;2023-04-26T01:52:49;99121.01;;;25.58;42.24
60646;BME280;46462;32.608;-117.032;2023-04-26T01:55:20;99125.68;;;25.54;42.28
60646;BME280;46462;32.608;-117.032;2023-04-26T01:57:50;99124.54;;;25.55;42.24
60646;BME280;46462;32.608;-117.032;2023-04-26T02:00:21;99125.23;;;25.55;42.23
60646;BME280;46462;32.608;-117.032;2023-04-26T02:02:54;99126.06;;;25.61;42.12
60646;BME280;46462;32.608;-117.032;2023-04-26T02:05:23;99129.46;;;25.62;42.11
60646;BME280;46462;32.608;-117.032;2023-04-26T02:07:53;99133.45;;;25.67;42.01
60646;BME280;46462;32.608;-117.032;2023-04-26T02:10:24;99135.12;;;25.70;41.95
60646;BME280;46462;32.608;-117.032;2023-04-26T02:12:55;99129.19;;;25.72;41.94
60646;BME280;46462;32.608;-117.032;2023-04-26T02:15:25;99130.95;;;25.71;42.01
60646;BME280;46462;32.608;-117.032;2023-04-26T02:17:56;99127.24;;;25.72;42.17
60646;BME280;46462;32.608;-117.032;2023-04-26T02:20:27;99130.49;;;25.70;42.23
60646;BME280;46462;32.608;-117.032;2023-04-26T02:22:58;99135.74;;;25.71;42.22
60646;BME280;46462;32.608;-117.032;2023-04-26T02:25:29;99136.97;;;25.69;42.18
60646;BME280;46462;32.608;-117.032;2023-04-26T02:27:59;99138.15;;;25.68;42.15
60646;BME280;46462;32.608;-117.032;2023-04-26T02:30:30;99141.54;;;25.66;42.19
60646;BME280;46462;32.608;-117.032;2023-04-26T02:33:00;99144.55;;;25.69;42.06
60646;BME280;46462;32.608;-117.032;2023-04-26T02:35:31;99149.05;;;25.68;42.08
60646;BME280;46462;32.608;-117.032;2023-04-26T02:38:03;99153.34;;;25.68;42.01
60646;BME280;46462;32.608;-117.032;2023-04-26T02:40:33;99157.58;;;25.68;41.96
60646;BME280;46462;32.608;-117.032;2023-04-26T02:43:03;99159.29;;;25.68;41.92
60646;BME280;46462;32.608;-117.032;2023-04-26T02:45:35;99161.04;;;25.63;42.01
60646;BME280;46462;32.608;-117.032;2023-04-26T02:48:05;99166.61;;;25.61;42.04
60646;BME280;46462;32.608;-117.032;2023-04-26T02:50:35;99175.38;;;25.61;42.05
60646;BME280;46462;32.608;-117.032;2023-04-26T02:53:06;99180.36;;;25.61;42.03
60646;BME280;46462;32.608;-117.032;2023-04-26T02:55:38;99184.92;;;25.60;42.02
60646;BME280;46462;32.608;-117.032;2023-04-26T02:58:07;99180.51;;;25.59;42.08
60646;BME280;46462;32.608;-117.032;2023-04-26T03:00:38;99182.32;;;25.57;42.04
60646;BME280;46462;32.608;-117.032;2023-04-26T03:03:09;99187.74;;;25.57;42.06
60646;BME280;46462;32.608;-117.032;2023-04-26T03:05:39;99188.39;;;25.56;42.03
60646;BME280;46462;32.608;-117.032;2023-04-26T03:08:10;99190.43;;;25.57;41.99
60646;BME280;46462;32.608;-117.032;2023-04-26T03:10:43;99194.69;;;25.57;42.00
60646;BME280;46462;32.608;-117.032;2023-04-26T03:13:12;99195.47;;;25.57;41.98
60646;BME280;46462;32.608;-117.032;2023-04-26T03:15:44;99192.27;;;25.56;42.00
60646;BME280;46462;32.608;-117.032;2023-04-26T03:18:13;99197.65;;;25.57;41.97
60646;BME280;46462;32.608;-117.032;2023-04-26T03:20:45;99203.76;;;25.55;42.06
60646;BME280;46462;32.608;-117.032;2023-04-26T03:23:15;99210.71;;;25.54;42.05
60646;BME280;46462;32.608;-117.032;2023-04-26T03:25:45;99214.31;;;25.49;42.20
60646;BME280;46462;32.608;-117.032;2023-04-26T03:28:16;99223.21;;;25.49;42.20
60646;BME280;46462;32.608;-117.032;2023-04-26T03:30:47;99228.44;;;25.47;42.15
60646;BME280;46462;32.608;-117.032;2023-04-26T03:33:17;99231.00;;;25.47;42.17
60646;BME280;46462;32.608;-117.032;2023-04-26T03:35:48;99232.58;;;25.47;42.16
60646;BME280;46462;32.608;-117.032;2023-04-26T03:38:19;99235.77;;;25.43;42.20
60646;BME280;46462;32.608;-117.032;2023-04-26T03:40:50;99240.21;;;25.41;42.25
60646;BME280;46462;32.608;-117.032;2023-04-26T03:43:20;99241.30;;;25.42;42.17
60646;BME280;46462;32.608;-117.032;2023-04-26T03:45:51;99243.46;;;25.40;42.19
60646;BME280;46462;32.608;-117.032;2023-04-26T03:48:22;99244.59;;;25.38;42.23
60646;BME280;46462;32.608;-117.032;2023-04-26T03:50:52;99244.83;;;25.36;42.24
60646;BME280;46462;32.608;-117.032;2023-04-26T03:53:23;99245.74;;;25.35;42.29
60646;BME280;46462;32.608;-117.032;2023-04-26T03:55:54;99247.54;;;25.32;42.31
60646;BME280;46462;32.608;-117.032;2023-04-26T03:58:25;99247.74;;;25.32;42.26
60646;BME280;46462;32.608;-117.032;2023-04-26T04:00:56;99252.78;;;25.28;42.36
60646;BME280;46462;32.608;-117.032;2023-04-26T04:03:26;99255.84;;;25.27;42.36
60646;BME280;46462;32.608;-117.032;2023-04-26T04:05:56;99262.34;;;25.26;42.42
60646;BME280;46462;32.608;-117.032;2023-04-26T04:08:27;99266.31;;;25.24;42.43
60646;BME280;46462;32.608;-117.032;2023-04-26T04:10:59;99270.31;;;25.24;42.41
60646;BME280;46462;32.608;-117.032;2023-04-26T04:13:29;99270.50;;;25.26;42.35
60646;BME280;46462;32.608;-117.032;2023-04-26T04:15:59;99274.63;;;25.21;42.43
60646;BME280;46462;32.608;-117.032;2023-04-26T04:18:30;99278.10;;;25.18;42.47
60646;BME280;46462;32.608;-117.032;2023-04-26T04:21:01;99283.90;;;25.24;42.31
60646;BME280;46462;32.608;-117.032;2023-04-26T04:23:31;99288.80;;;25.21;42.35
60646;BME280;46462;32.608;-117.032;2023-04-26T04:26:02;99291.28;;;25.19;42.43
60646;BME280;46462;32.608;-117.032;2023-04-26T04:28:33;99290.74;;;25.19;42.36
60646;BME280;46462;32.608;-117.032;2023-04-26T04:31:04;99292.21;;;25.19;42.31
60646;BME280;46462;32.608;-117.032;2023-04-26T04:33:34;99300.84;;;25.18;42.34
60646;BME280;46462;32.608;-117.032;2023-04-26T04:36:05;99299.29;;;25.18;42.33
60646;BME280;46462;32.608;-117.032;2023-04-26T04:38:36;99296.16;;;25.22;42.22
60646;BME280;46462;32.608;-117.032;2023-04-26T04:41:07;99295.91;;;25.22;42.19
60646;BME280;46462;32.608;-117.032;2023-04-26T04:43:37;99296.05;;;25.19;42.23
60646;BME280;46462;32.608;-117.032;2023-04-26T04:46:08;99298.44;;;25.17;42.25
60646;BME280;46462;32.608;-117.032;2023-04-26T04:48:39;99301.28;;;25.15;42.25
60646;BME280;46462;32.608;-117.032;2023-04-26T04:51:09;99300.67;;;25.19;42.14
60646;BME280;46462;32.608;-117.032;2023-04-26T04:53:40;99302.26;;;25.18;42.12
60646;BME280;46462;32.608;-117.032;2023-04-26T04:56:11;99302.58;;;25.22;42.02
60646;BME280;46462;32.608;-117.032;2023-04-26T04:58:42;99304.81;;;25.13;42.18
60646;BME280;46462;32.608;-117.032;2023-04-26T05:01:12;99307.79;;;25.10;42.21
60646;BME280;46462;32.608;-117.032;2023-04-26T05:03:43;99309.22;;;25.05;42.32
60646;BME280;46462;32.608;-117.032;2023-04-26T05:06:13;99306.79;;;25.06;42.26
60646;BME280;46462;32.608;-117.032;2023-04-26T05:08:44;99312.06;;;25.04;42.28
60646;BME280;46462;32.608;-117.032;2023-04-26T05:11:15;99312.97;;;25.04;42.25
60646;BME280;46462;32.608;-117.032;2023-04-26T05:13:46;99312.83;;;25.03;42.24
60646;BME280;46462;32.608;-117.032;2023-04-26T05:16:16;99317.45;;;25.03;42.22
60646;BME280;46462;32.608;-117.032;2023-04-26T05:18:47;99318.72;;;25.01;42.24
60646;BME280;46462;32.608;-117.032;2023-04-26T05:21:18;99317.90;;;24.97;42.31
60646;BME280;46462;32.608;-117.032;2023-04-26T05:23:48;99318.87;;;24.98;42.26
60646;BME280;46462;32.608;-117.032;2023-04-26T05:26:19;99318.80;;;24.96;42.28
60646;BME280;46462;32.608;-117.032;2023-04-26T05:28:50;99317.24;;;24.99;42.18
60646;BME280;46462;32.608;-117.032;2023-04-26T05:31:21;99315.58;;;24.99;42.15
60646;BME280;46462;32.608;-117.032;2023-04-26T05:33:51;99319.40;;;24.96;42.17
60646;BME280;46462;32.608;-117.032;2023-04-26T05:36:22;99318.08;;;24.92;42.22
60646;BME280;46462;32.608;-117.032;2023-04-26T05:38:53;99317.58;;;24.93;42.16
60646;BME280;46462;32.608;-117.032;2023-04-26T05:41:24;99318.68;;;24.98;42.06
60646;BME280;46462;32.608;-117.032;2023-04-26T05:43:54;99319.32;;;24.99;41.97
60646;BME280;46462;32.608;-117.032;2023-04-26T05:46:25;99318.31;;;25.04;41.83
60646;BME280;46462;32.608;-117.032;2023-04-26T05:48:56;99316.97;;;25.01;41.85
60646;BME280;46462;32.608;-117.032;2023-04-26T05:51:26;99309.56;;;24.99;41.88
60646;BME280;46462;32.608;-117.032;2023-04-26T05:53:57;99308.66;;;24.97;41.88
60646;BME280;46462;32.608;-117.032;2023-04-26T05:56:28;99313.25;;;24.94;41.95
60646;BME280;46462;32.608;-117.032;2023-04-26T05:58:58;99315.60;;;24.93;41.95
60646;BME280;46462;32.608;-117.032;2023-04-26T06:01:29;99315.27;;;24.91;41.98
60646;BME280;46462;32.608;-117.032;2023-04-26T06:04:00;99314.04;;;24.93;41.93
60646;BME280;46462;32.608;-117.032;2023-04-26T06:06:31;99310.83;;;24.93;41.90
60646;BME280;46462;32.608;-117.032;2023-04-26T06:09:01;99308.77;;;24.88;41.93
60646;BME280;46462;32.608;-117.032;2023-04-26T06:11:32;99308.43;;;24.88;41.91
60646;BME280;46462;32.608;-117.032;2023-04-26T06:14:03;99307.35;;;24.84;41.99
60646;BME280;46462;32.608;-117.032;2023-04-26T06:16:34;99313.41;;;24.86;41.95
60646;BME280;46462;32.608;-117.032;2023-04-26T06:19:04;99312.78;;;24.84;41.88
60646;BME280;46462;32.608;-117.032;2023-04-26T06:21:35;99313.70;;;24.84;41.87
60646;BME280;46462;32.608;-117.032;2023-04-26T06:24:06;99311.93;;;24.81;41.92
60646;BME280;46462;32.608;-117.032;2023-04-26T06:26:36;99314.65;;;24.86;41.78
60646;BME280;46462;32.608;-117.032;2023-04-26T06:29:07;99315.23;;;24.86;41.77
60646;BME280;46462;32.608;-117.032;2023-04-26T06:31:38;99314.54;;;24.86;41.74
60646;BME280;46462;32.608;-117.032;2023-04-26T06:34:09;99313.23;;;24.84;41.76
60646;BME280;46462;32.608;-117.032;2023-04-26T06:36:40;99313.07;;;24.86;41.67
60646;BME280;46462;32.608;-117.032;2023-04-26T06:39:10;99314.80;;;24.81;41.70
60646;BME280;46462;32.608;-117.032;2023-04-26T06:41:41;99310.78;;;24.84;41.66
60646;BME280;46462;32.608;-117.032;2023-04-26T06:44:12;99309.48;;;24.80;41.70
60646;BME280;46462;32.608;-117.032;2023-04-26T06:46:42;99308.03;;;24.73;41.82
60646;BME280;46462;32.608;-117.032;2023-04-26T06:49:13;99311.17;;;24.72;41.83
60646;BME280;46462;32.608;-117.032;2023-04-26T06:51:44;99319.79;;;24.72;41.78
60646;BME280;46462;32.608;-117.032;2023-04-26T06:54:14;99326.56;;;24.73;41.75
60646;BME280;46462;32.608;-117.032;2023-04-26T06:56:46;99321.87;;;24.76;41.64
60646;BME280;46462;32.608;-117.032;2023-04-26T06:59:16;99316.19;;;24.73;41.61
60646;BME280;46462;32.608;-117.032;2023-04-26T07:01:46;99314.44;;;24.78;41.49
60646;BME280;46462;32.608;-117.032;2023-04-26T07:04:17;99308.33;;;24.76;41.55
60646;BME280;46462;32.608;-117.032;2023-04-26T07:06:48;99309.24;;;24.77;41.48
60646;BME280;46462;32.608;-117.032;2023-04-26T07:09:19;99306.94;;;24.77;41.47
60646;BME280;46462;32.608;-117.032;2023-04-26T07:11:49;99304.66;;;24.75;41.46
60646;BME280;46462;32.608;-117.032;2023-04-26T07:14:20;99306.44;;;24.76;41.39
60646;BME280;46462;32.608;-117.032;2023-04-26T07:16:51;99306.73;;;24.65;41.61
60646;BME280;46462;32.608;-117.032;2023-04-26T07:19:22;99308.04;;;24.61;41.71
60646;BME280;46462;32.608;-117.032;2023-04-26T07:21:52;99305.72;;;24.65;41.61
60646;BME280;46462;32.608;-117.032;2023-04-26T07:24:23;99308.76;;;24.61;41.70
60646;BME280;46462;32.608;-117.032;2023-04-26T07:26:55;99314.57;;;24.55;41.82
60646;BME280;46462;32.608;-117.032;2023-04-26T07:29:24;99312.18;;;24.55;41.80
60646;BME280;46462;32.608;-117.032;2023-04-26T07:31:55;99310.21;;;24.57;41.70
60646;BME280;46462;32.608;-117.032;2023-04-26T07:34:26;99313.66;;;24.52;41.82
60646;BME280;46462;32.608;-117.032;2023-04-26T07:36:57;99316.13;;;24.51;41.87
60646;BME280;46462;32.608;-117.032;2023-04-26T07:39:27;99315.08;;;24.49;41.88
60646;BME280;46462;32.608;-117.032;2023-04-26T07:41:58;99312.50;;;24.49;41.84
60646;BME280;46462;32.608;-117.032;2023-04-26T07:44:29;99316.47;;;24.54;41.69
60646;BME280;46462;32.608;-117.032;2023-04-26T07:47:00;99322.02;;;24.58;41.59
60646;BME280;46462;32.608;-117.032;2023-04-26T07:49:30;99322.24;;;24.53;41.61
60646;BME280;46462;32.608;-117.032;2023-04-26T07:52:01;99318.17;;;24.47;41.69
60646;BME280;46462;32.608;-117.032;2023-04-26T07:54:32;99321.07;;;24.51;41.61
60646;BME280;46462;32.608;-117.032;2023-04-26T07:57:03;99320.14;;;24.48;41.61
60646;BME280;46462;32.608;-117.032;2023-04-26T07:59:33;99321.62;;;24.50;41.55
60646;BME280;46462;32.608;-117.032;2023-04-26T08:02:04;99319.25;;;24.49;41.57
60646;BME280;46462;32.608;-117.032;2023-04-26T08:04:35;99316.42;;;24.51;41.51
60646;BME280;46462;32.608;-117.032;2023-04-26T08:07:05;99313.41;;;24.46;41.56
60646;BME280;46462;32.608;-117.032;2023-04-26T08:09:36;99314.50;;;24.47;41.48
60646;BME280;46462;32.608;-117.032;2023-04-26T08:12:08;99317.14;;;24.46;41.51
60646;BME280;46462;32.608;-117.032;2023-04-26T08:14:38;99317.39;;;24.43;41.51
60646;BME280;46462;32.608;-117.032;2023-04-26T08:17:09;99320.39;;;24.46;41.46
60646;BME280;46462;32.608;-117.032;2023-04-26T08:19:39;99319.29;;;24.48;41.39
60646;BME280;46462;32.608;-117.032;2023-04-26T08:22:10;99323.93;;;24.47;41.35
60646;BME280;46462;32.608;-117.032;2023-04-26T08:24:41;99320.90;;;24.48;41.30
60646;BME280;46462;32.608;-117.032;2023-04-26T08:27:12;99322.01;;;24.51;41.23
60646;BME280;46462;32.608;-117.032;2023-04-26T08:29:42;99326.05;;;24.52;41.19
60646;BME280;46462;32.608;-117.032;2023-04-26T08:32:13;99329.06;;;24.52;41.11
60646;BME280;46462;32.608;-117.032;2023-04-26T08:34:44;99324.73;;;24.41;41.32
60646;BME280;46462;32.608;-117.032;2023-04-26T08:37:15;99323.39;;;24.37;41.43
60646;BME280;46462;32.608;-117.032;2023-04-26T08:39:45;99322.45;;;24.46;41.20
60646;BME280;46462;32.608;-117.032;2023-04-26T08:42:17;99319.48;;;24.46;41.17
60646;BME280;46462;32.608;-117.032;2023-04-26T08:44:47;99314.23;;;24.45;41.17
60646;BME280;46462;32.608;-117.032;2023-04-26T08:47:20;99310.50;;;24.45;41.14
60646;BME280;46462;32.608;-117.032;2023-04-26T08:49:53;99305.85;;;24.45;41.16
60646;BME280;46462;32.608;-117.032;2023-04-26T08:52:19;99303.68;;;24.49;41.05
60646;BME280;46462;32.608;-117.032;2023-04-26T08:54:50;99298.93;;;24.39;41.27
60646;BME280;46462;32.608;-117.032;2023-04-26T08:57:21;99296.20;;;24.38;41.26
60646;BME280;46462;32.608;-117.032;2023-04-26T08:59:51;99293.93;;;24.29;41.42
60646;BME280;46462;32.608;-117.032;2023-04-26T09:02:22;99292.80;;;24.38;41.25
60646;BME280;46462;32.608;-117.032;2023-04-26T09:04:52;99286.78;;;24.33;41.28
60646;BME280;46462;32.608;-117.032;2023-04-26T09:07:29;99284.38;;;24.30;41.33
60646;BME280;46462;32.608;-117.032;2023-04-26T09:09:54;99276.78;;;24.33;41.24
60646;BME280;46462;32.608;-117.032;2023-04-26T09:12:25;99273.36;;;24.32;41.22
60646;BME280;46462;32.608;-117.032;2023-04-26T09:14:55;99270.97;;;24.38;41.09
60646;BME280;46462;32.608;-117.032;2023-04-26T09:17:27;99271.98;;;24.38;41.02
60646;BME280;46462;32.608;-117.032;2023-04-26T09:19:58;99277.89;;;24.43;40.91
60646;BME280;46462;32.608;-117.032;2023-04-26T09:22:29;99279.71;;;24.41;40.90
60646;BME280;46462;32.608;-117.032;2023-04-26T09:24:59;99274.46;;;24.35;41.00
60646;BME280;46462;32.608;-117.032;2023-04-26T09:27:34;99270.45;;;24.37;40.93
60646;BME280;46462;32.608;-117.032;2023-04-26T09:30:03;99267.06;;;24.30;41.04
60646;BME280;46462;32.608;-117.032;2023-04-26T09:35:01;99267.97;;;24.22;41.26
60646;BME280;46462;32.608;-117.032;2023-04-26T09:37:32;99268.59;;;24.22;41.21
60646;BME280;46462;32.608;-117.032;2023-04-26T09:40:17;99274.71;;;24.33;40.95
60646;BME280;46462;32.608;-117.032;2023-04-26T09:42:37;99272.07;;;24.32;40.92
60646;BME280;46462;32.608;-117.032;2023-04-26T09:45:08;99270.67;;;24.25;41.06
60646;BME280;46462;32.608;-117.032;2023-04-26T09:47:38;99266.04;;;24.22;41.09
60646;BME280;46462;32.608;-117.032;2023-04-26T09:50:12;99268.18;;;24.22;41.12
60646;BME280;46462;32.608;-117.032;2023-04-26T09:52:43;99266.23;;;24.26;41.06
60646;BME280;46462;32.608;-117.032;2023-04-26T09:57:44;99277.08;;;24.27;40.96
60646;BME280;46462;32.608;-117.032;2023-04-26T10:00:15;99272.82;;;24.31;40.88
60646;BME280;46462;32.608;-117.032;2023-04-26T10:02:46;99269.68;;;24.32;40.80
60646;BME280;46462;32.608;-117.032;2023-04-26T10:05:16;99273.17;;;24.31;40.86
60646;BME280;46462;32.608;-117.032;2023-04-26T10:07:47;99271.87;;;24.31;40.84
60646;BME280;46462;32.608;-117.032;2023-04-26T10:10:18;99267.86;;;24.34;40.73
60646;BME280;46462;32.608;-117.032;2023-04-26T10:12:48;99264.27;;;24.39;40.60
60646;BME280;46462;32.608;-117.032;2023-04-26T10:15:19;99266.61;;;24.36;40.65
60646;BME280;46462;32.608;-117.032;2023-04-26T10:17:50;99270.70;;;24.29;40.80
60646;BME280;46462;32.608;-117.032;2023-04-26T10:20:21;99269.13;;;24.34;40.67
60646;BME280;46462;32.608;-117.032;2023-04-26T10:22:52;99268.83;;;24.33;40.69
60646;BME280;46462;32.608;-117.032;2023-04-26T10:27:53;99259.33;;;24.27;40.72
60646;BME280;46462;32.608;-117.032;2023-04-26T10:30:23;99262.27;;;24.28;40.71
60646;BME280;46462;32.608;-117.032;2023-04-26T10:35:25;99261.79;;;24.24;40.75
60646;BME280;46462;32.608;-117.032;2023-04-26T10:40:28;99260.01;;;24.14;40.90
60646;BME280;46462;32.608;-117.032;2023-04-26T10:45:28;99264.89;;;24.13;40.89
60646;BME280;46462;32.608;-117.032;2023-04-26T10:50:29;99258.41;;;24.09;40.92
60646;BME280;46462;32.608;-117.032;2023-04-26T10:53:04;99260.76;;;24.11;40.89
60646;BME280;46462;32.608;-117.032;2023-04-26T10:55:38;99262.69;;;24.11;40.86
60646;BME280;46462;32.608;-117.032;2023-04-26T10:58:09;99259.53;;;24.10;40.84
60646;BME280;46462;32.608;-117.032;2023-04-26T11:00:32;99262.29;;;24.09;40.89
60646;BME280;46462;32.608;-117.032;2023-04-26T11:03:05;99263.22;;;24.08;40.86
60646;BME280;46462;32.608;-117.032;2023-04-26T11:08:06;99259.78;;;24.04;40.91
60646;BME280;46462;32.608;-117.032;2023-04-26T11:10:37;99263.76;;;24.04;40.91
60646;BME280;46462;32.608;-117.032;2023-04-26T11:13:06;99266.42;;;23.97;41.01
60646;BME280;46462;32.608;-117.032;2023-04-26T11:15:36;99258.60;;;23.95;41.10
60646;BME280;46462;32.608;-117.032;2023-04-26T11:18:07;99257.39;;;23.99;40.99
60646;BME280;46462;32.608;-117.032;2023-04-26T11:20:38;99257.83;;;23.96;41.04
60646;BME280;46462;32.608;-117.032;2023-04-26T11:23:09;99258.40;;;23.96;41.02
60646;BME280;46462;32.608;-117.032;2023-04-26T11:25:39;99260.29;;;23.91;41.11
60646;BME280;46462;32.608;-117.032;2023-04-26T11:28:10;99256.62;;;23.90;41.14
60646;BME280;46462;32.608;-117.032;2023-04-26T11:30:41;99252.53;;;23.89;41.16
60646;BME280;46462;32.608;-117.032;2023-04-26T11:33:17;99256.20;;;23.91;41.12
60646;BME280;46462;32.608;-117.032;2023-04-26T11:35:43;99259.40;;;23.93;41.12
60646;BME280;46462;32.608;-117.032;2023-04-26T11:38:13;99254.72;;;23.97;40.97
60646;BME280;46462;32.608;-117.032;2023-04-26T11:40:44;99245.86;;;23.99;40.94
60646;BME280;46462;32.608;-117.032;2023-04-26T11:43:15;99249.49;;;23.92;41.00
60646;BME280;46462;32.608;-117.032;2023-04-26T11:45:45;99254.47;;;23.94;40.98
60646;BME280;46462;32.608;-117.032;2023-04-26T11:48:16;99256.39;;;23.92;41.01
60646;BME280;46462;32.608;-117.032;2023-04-26T11:50:47;99256.35;;;23.89;41.04
60646;BME280;46462;32.608;-117.032;2023-04-26T11:53:18;99252.80;;;23.82;41.12
60646;BME280;46462;32.608;-117.032;2023-04-26T11:55:48;99252.67;;;23.78;41.23
60646;BME280;46462;32.608;-117.032;2023-04-26T11:58:19;99251.21;;;23.80;41.16
60646;BME280;46462;32.608;-117.032;2023-04-26T12:00:55;99256.38;;;23.81;41.13
60646;BME280;46462;32.608;-117.032;2023-04-26T12:03:21;99257.07;;;23.87;41.01
60646;BME280;46462;32.608;-117.032;2023-04-26T12:05:54;99257.13;;;23.77;41.19
60646;BME280;46462;32.608;-117.032;2023-04-26T12:08:24;99252.42;;;23.81;41.05
60646;BME280;46462;32.608;-117.032;2023-04-26T12:10:53;99256.67;;;23.84;40.98
60646;BME280;46462;32.608;-117.032;2023-04-26T12:13:24;99258.44;;;23.80;41.05
60646;BME280;46462;32.608;-117.032;2023-04-26T12:15:54;99252.28;;;23.84;40.98
60646;BME280;46462;32.608;-117.032;2023-04-26T12:18:30;99254.70;;;23.80;41.05
60646;BME280;46462;32.608;-117.032;2023-04-26T12:20:57;99254.13;;;23.81;41.00
60646;BME280;46462;32.608;-117.032;2023-04-26T12:23:26;99252.63;;;23.82;40.95
60646;BME280;46462;32.608;-117.032;2023-04-26T12:25:57;99251.97;;;23.82;40.94
60646;BME280;46462;32.608;-117.032;2023-04-26T12:28:28;99253.61;;;23.83;40.89
60646;BME280;46462;32.608;-117.032;2023-04-26T12:30:58;99254.67;;;23.79;40.98
60646;BME280;46462;32.608;-117.032;2023-04-26T12:33:29;99252.04;;;23.75;41.04
60646;BME280;46462;32.608;-117.032;2023-04-26T12:36:06;99257.80;;;23.76;41.02
60646;BME280;46462;32.608;-117.032;2023-04-26T12:38:31;99259.56;;;23.73;41.10
60646;BME280;46462;32.608;-117.032;2023-04-26T12:41:01;99262.25;;;23.76;41.03
60646;BME280;46462;32.608;-117.032;2023-04-26T12:43:32;99261.08;;;23.71;41.06
60646;BME280;46462;32.608;-117.032;2023-04-26T12:46:03;99260.97;;;23.69;41.10
60646;BME280;46462;32.608;-117.032;2023-04-26T12:48:34;99261.26;;;23.70;41.10
60646;BME280;46462;32.608;-117.032;2023-04-26T12:51:05;99263.66;;;23.69;41.13
60646;BME280;46462;32.608;-117.032;2023-04-26T12:53:35;99256.84;;;23.67;41.13
60646;BME280;46462;32.608;-117.032;2023-04-26T12:56:06;99253.60;;;23.67;41.15
60646;BME280;46462;32.608;-117.032;2023-04-26T12:58:37;99257.78;;;23.67;41.15
60646;BME280;46462;32.608;-117.032;2023-04-26T13:01:08;99260.61;;;23.66;41.11
60646;BME280;46462;32.608;-117.032;2023-04-26T13:03:38;99265.31;;;23.67;41.12
60646;BME280;46462;32.608;-117.032;2023-04-26T13:06:09;99268.04;;;23.70;41.01
60646;BME280;46462;32.608;-117.032;2023-04-26T13:08:39;99269.78;;;23.66;41.09